Time;durP1;ratioP1;P1;durP2;ratioP2;P2;SDS_P1;SDS_P2;PMS_P1;PMS_P2;Temp;Humidity;BMP_temperature;BMP_pressure;BME280_temperature;BME280_humidity;BME280_pressure;Samples;Min_cycle;Max_cycle;Signal;HPM_P1;HPM_P2
2022/06/23 00:00:37;;;;;;;7.25;4.05;;;;;;;20.02;54.66;101221.97;5012228;28;20032;-65
2022/06/23 00:03:04;;;;;;;8.48;4.10;;;;;;;19.97;55.31;101211.59;5012205;28;20112;-65
2022/06/23 00:05:37;;;;;;;8.63;3.97;;;;;;;19.98;55.46;101207.22;5010456;28;20030;-65
2022/06/23 00:08:07;;;;;;;10.30;4.20;;;;;;;19.90;56.38;101209.88;5012606;28;20477;-65
2022/06/23 00:10:38;;;;;;;13.05;4.40;;;;;;;19.89;56.77;101208.13;5011123;28;20116;-66
2022/06/23 00:13:15;;;;;;;7.45;3.53;;;;;;;19.89;56.75;101207.25;5010416;28;20037;-65
2022/06/23 00:15:44;;;;;;;8.73;4.28;;;;;;;19.81;57.56;101204.69;4991521;28;20037;-65
2022/06/23 00:18:25;;;;;;;7.57;4.00;;;;;;;19.87;56.79;101203.81;5008868;28;20030;-65
2022/06/23 00:20:58;;;;;;;7.97;4.10;;;;;;;19.83;57.49;101205.53;5010317;28;20618;-65
2022/06/23 00:23:29;;;;;;;6.63;4.35;;;;;;;19.67;58.85;101211.72;5004547;28;20091;-66
2022/06/23 00:26:10;;;;;;;10.75;4.00;;;;;;;19.61;58.55;101199.56;5009901;28;20041;-65
2022/06/23 00:29:10;;;;;;;10.98;4.57;;;;;;;19.67;58.19;101196.94;5009416;28;20051;-65
2022/06/23 00:32:01;;;;;;;11.50;4.45;;;;;;;19.62;59.02;101187.38;5006603;28;20022;-65
2022/06/23 00:34:43;;;;;;;8.52;5.00;;;;;;;19.51;59.59;101190.00;4988876;28;20037;-65
2022/06/23 00:37:16;;;;;;;11.50;4.80;;;;;;;19.39;60.94;101190.91;5009322;28;20034;-65
2022/06/23 00:39:51;;;;;;;13.25;5.00;;;;;;;19.45;60.41;101197.84;5011120;28;20030;-65
2022/06/23 00:42:35;;;;;;;10.68;4.90;;;;;;;19.47;60.29;101198.69;5009808;28;21139;-65
2022/06/23 00:45:10;;;;;;;11.40;5.25;;;;;;;19.40;61.22;101203.06;5009773;28;20461;-65
2022/06/23 00:47:48;;;;;;;11.60;5.45;;;;;;;19.37;61.77;101202.22;5011240;28;20030;-65
2022/06/23 00:50:25;;;;;;;11.35;5.72;;;;;;;19.31;62.37;101203.09;5008981;28;20041;-65
2022/06/23 00:53:00;;;;;;;13.63;5.63;;;;;;;19.41;61.78;101202.19;5008661;28;20065;-65
2022/06/23 00:55:35;;;;;;;11.65;5.63;;;;;;;19.34;62.50;101204.81;5009242;28;20034;-65
2022/06/23 00:58:15;;;;;;;11.70;5.80;;;;;;;19.25;63.08;101200.50;5011075;28;20030;-65
2022/06/23 01:00:42;;;;;;;7.70;5.30;;;;;;;19.20;63.01;101203.13;5012637;28;20025;-65
2022/06/23 01:03:07;;;;;;;10.90;4.97;;;;;;;19.18;63.32;101191.84;5009521;28;20416;-65
2022/06/23 01:05:36;;;;;;;10.52;5.47;;;;;;;19.19;63.57;101192.69;5006304;28;20022;-65
2022/06/23 01:08:22;;;;;;;11.02;5.30;;;;;;;19.19;63.76;101190.97;5012434;28;20045;-65
2022/06/23 01:11:04;;;;;;;11.18;5.95;;;;;;;19.23;63.21;101184.88;5010079;28;20038;-65
2022/06/23 01:13:57;;;;;;;9.18;5.65;;;;;;;19.21;63.50;101180.53;5008939;28;20400;-65
2022/06/23 01:16:30;;;;;;;11.52;5.88;;;;;;;19.14;64.40;101174.47;5005276;28;20030;-65
2022/06/23 01:19:20;;;;;;;12.02;6.03;;;;;;;19.17;63.91;101184.00;5008406;28;20103;-65
2022/06/23 01:21:53;;;;;;;12.07;5.82;;;;;;;19.27;64.25;101180.50;5010304;28;20033;-65
2022/06/23 01:24:52;;;;;;;11.90;5.72;;;;;;;19.31;63.39;101179.63;5010674;28;20539;-65
2022/06/23 01:27:18;;;;;;;12.45;6.05;;;;;;;19.18;64.63;101167.50;5008510;28;20094;-65
2022/06/23 01:29:48;;;;;;;8.65;5.60;;;;;;;19.21;64.84;101163.13;5004432;28;20332;-66
2022/06/23 01:32:22;;;;;;;12.23;5.80;;;;;;;19.25;64.51;101172.69;5008136;28;20112;-65
2022/06/23 01:35:06;;;;;;;7.78;5.65;;;;;;;19.17;64.83;101168.34;5008832;28;20025;-65
2022/06/23 01:38:01;;;;;;;9.55;5.68;;;;;;;19.28;64.08;101167.47;5006077;28;20072;-65
2022/06/23 01:40:34;;;;;;;11.30;5.82;;;;;;;19.16;65.14;101177.91;5010855;28;20022;-65
2022/06/23 01:43:04;;;;;;;10.55;5.90;;;;;;;19.11;65.04;101179.69;5009312;28;20026;-65
2022/06/23 01:45:45;;;;;;;12.98;6.25;;;;;;;19.06;64.98;101180.56;5007760;28;20084;-65
2022/06/23 01:48:53;;;;;;;11.75;5.95;;;;;;;19.02;64.91;101190.97;5010063;28;20041;-65
2022/06/23 01:51:32;;;;;;;10.13;6.10;;;;;;;19.02;65.45;101177.94;5012421;28;20112;-65
2022/06/23 01:54:22;;;;;;;13.57;6.22;;;;;;;19.11;64.48;101184.91;5012025;28;20026;-65
2022/06/23 01:57:03;;;;;;;10.40;5.90;;;;;;;19.10;65.17;101187.50;5010515;28;20034;-65
2022/06/23 01:59:34;;;;;;;13.10;6.05;;;;;;;19.02;65.28;101177.94;5005930;28;20022;-66
2022/06/23 02:02:21;;;;;;;14.90;6.22;;;;;;;18.89;65.76;101176.25;5009360;28;20372;-65
2022/06/23 02:04:59;;;;;;;12.90;6.25;;;;;;;18.90;65.34;101171.91;5008675;28;20029;-65
2022/06/23 02:07:29;;;;;;;10.35;5.95;;;;;;;18.80;65.82;101172.75;5009799;28;20052;-65
2022/06/23 02:10:06;;;;;;;11.13;6.05;;;;;;;18.86;65.76;101172.75;5010277;28;20037;-65
2022/06/23 02:12:41;;;;;;;10.43;6.03;;;;;;;18.87;65.12;101171.88;5007254;28;20389;-65
2022/06/23 02:15:15;;;;;;;12.02;6.18;;;;;;;18.77;65.85;101175.38;5013849;28;20372;-65
2022/06/23 02:17:47;;;;;;;8.98;6.22;;;;;;;18.81;65.82;101177.09;5007383;28;20495;-65
2022/06/23 02:20:39;;;;;;;9.82;6.35;;;;;;;18.87;65.06;101169.28;5009129;28;20036;-65
2022/06/23 02:23:14;;;;;;;11.75;6.55;;;;;;;18.77;65.38;101165.84;5009868;28;20496;-65
2022/06/23 02:25:55;;;;;;;11.30;6.38;;;;;;;18.67;65.82;101161.47;5007272;28;20099;-65
2022/06/23 02:28:40;;;;;;;9.02;6.25;;;;;;;18.75;65.02;101173.66;5011585;28;20021;-65
2022/06/23 02:31:11;;;;;;;11.50;6.30;;;;;;;18.72;65.41;101171.03;5006163;28;20033;-65
2022/06/23 02:33:44;;;;;;;9.75;6.28;;;;;;;18.72;65.78;101165.81;4996518;28;20112;-66
2022/06/23 02:36:42;;;;;;;9.50;5.80;;;;;;;18.81;64.76;101170.19;5007589;28;20456;-65
2022/06/23 02:39:16;;;;;;;12.05;6.30;;;;;;;18.67;65.35;101159.75;5004082;28;20034;-66
2022/06/23 02:41:51;;;;;;;9.10;6.05;;;;;;;18.69;65.32;101170.19;5009108;28;20030;-65
2022/06/23 02:44:19;;;;;;;11.48;6.75;;;;;;;18.65;65.44;101173.63;5009043;28;20048;-65
2022/06/23 02:47:03;;;;;;;11.10;6.75;;;;;;;18.70;64.75;101164.97;5011818;28;20476;-65
2022/06/23 02:49:28;;;;;;;13.43;5.95;;;;;;;18.51;65.45;101165.81;5007031;28;20033;-65
2022/06/23 02:52:11;;;;;;;11.73;6.55;;;;;;;18.65;64.77;101158.84;5006816;28;20115;-65
2022/06/23 02:54:54;;;;;;;14.63;6.93;;;;;;;18.58;64.98;101161.47;5007284;28;20073;-65
2022/06/23 02:57:37;;;;;;;13.77;6.20;;;;;;;18.60;64.57;101144.09;5008946;28;20025;-65
2022/06/23 03:00:20;;;;;;;10.80;6.75;;;;;;;18.48;64.91;101155.38;5006452;28;20160;-65
2022/06/23 03:03:23;;;;;;;9.85;6.15;;;;;;;18.54;64.38;101150.16;5004750;28;20053;-66
2022/06/23 03:05:59;;;;;;;10.63;6.50;;;;;;;18.56;64.24;101156.25;5008954;28;20100;-65
2022/06/23 03:08:53;;;;;;;11.30;6.78;;;;;;;18.55;64.19;101156.25;4989305;28;20105;-65
2022/06/23 03:12:09;;;;;;;11.75;6.78;;;;;;;18.51;64.54;101155.41;4990432;28;20034;-65
2022/06/23 03:14:21;;;;;;;10.35;6.65;;;;;;;18.45;64.58;101147.59;4977341;28;20169;-65
2022/06/23 03:16:53;;;;;;;11.90;6.80;;;;;;;18.39;64.20;101138.03;4988925;28;20061;-65
2022/06/23 03:19:29;;;;;;;11.25;6.97;;;;;;;18.38;64.34;101136.31;4987982;28;20105;-65
2022/06/23 03:22:29;;;;;;;11.18;6.53;;;;;;;18.45;63.88;101130.22;4987156;28;20034;-65
2022/06/23 03:25:32;;;;;;;10.90;6.82;;;;;;;18.42;63.54;101138.00;4990710;28;20033;-65
2022/06/23 03:28:08;;;;;;;12.27;6.63;;;;;;;18.33;63.86;101144.97;4992404;28;20038;-66
2022/06/23 03:30:41;;;;;;;12.30;6.80;;;;;;;18.25;63.97;101131.94;4989658;28;20041;-65
2022/06/23 03:33:33;;;;;;;10.23;6.80;;;;;;;18.30;63.36;101129.34;4991544;28;20057;-65
2022/06/23 03:36:13;;;;;;;11.80;6.25;;;;;;;18.20;63.55;101138.84;4988834;28;20031;-65
2022/06/23 03:42:06;;;;;;;9.27;6.33;;;;;;;18.11;63.39;101133.66;4957335;28;20116;-65
2022/06/23 03:44:42;;;;;;;11.95;6.45;;;;;;;18.08;63.84;101129.34;4990319;28;20073;-65
2022/06/23 03:47:21;;;;;;;10.27;6.53;;;;;;;18.18;63.30;101131.06;4990973;28;20061;-65
2022/06/23 03:49:56;;;;;;;13.15;5.88;;;;;;;18.20;63.11;101129.34;4988893;28;20034;-65
2022/06/23 03:52:33;;;;;;;10.73;6.20;;;;;;;18.23;63.12;101131.06;4985224;28;20030;-65
2022/06/23 03:55:23;;;;;;;8.80;5.78;;;;;;;18.28;62.49;101137.16;4987482;28;20125;-65
2022/06/23 03:57:55;;;;;;;9.80;6.05;;;;;;;18.27;62.20;101135.44;4994457;28;20085;-65
2022/06/23 04:00:26;;;;;;;11.55;5.90;;;;;;;18.31;62.12;101151.91;4971569;28;20027;-65
2022/06/23 04:03:18;;;;;;;9.75;6.25;;;;;;;18.38;61.52;101151.03;4986583;28;20113;-65
2022/06/23 04:05:55;;;;;;;12.00;5.80;;;;;;;18.36;61.53;101148.44;4988416;28;20029;-65
2022/06/23 04:08:30;;;;;;;12.55;5.82;;;;;;;18.34;61.28;101151.91;5009355;28;20048;-65
2022/06/23 04:11:43;;;;;;;10.25;5.97;;;;;;;18.32;60.84;101156.22;5012534;28;20040;-65
2022/06/23 04:13:49;;;;;;;12.23;5.85;;;;;;;18.34;60.89;101149.31;5013326;28;20041;-65
2022/06/23 04:16:14;;;;;;;10.90;5.22;;;;;;;18.31;60.84;101141.47;5016143;28;20030;-65
2022/06/23 04:18:44;;;;;;;11.20;5.35;;;;;;;18.36;60.68;101144.97;4996560;28;20484;-65
2022/06/23 04:21:16;;;;;;;9.00;5.60;;;;;;;18.39;60.69;101140.63;5010429;28;20154;-65
2022/06/23 04:24:05;;;;;;;10.73;5.90;;;;;;;18.40;60.77;101136.28;5006950;28;20041;-65
2022/06/23 04:26:35;;;;;;;14.15;5.82;;;;;;;18.39;60.84;101131.97;5010180;28;20042;-66
2022/06/23 04:29:35;;;;;;;10.82;5.63;;;;;;;18.44;60.97;101140.63;5010997;28;20481;-65
2022/06/23 04:32:10;;;;;;;11.18;6.13;;;;;;;18.39;61.08;101147.59;5009309;28;20101;-65
2022/06/23 04:34:54;;;;;;;11.43;5.80;;;;;;;18.38;61.21;101148.41;5009059;28;20018;-65
2022/06/23 04:37:45;;;;;;;10.05;5.63;;;;;;;18.48;60.66;101145.84;5010840;28;20111;-65
2022/06/23 04:40:30;;;;;;;9.23;5.50;;;;;;;18.37;60.46;101147.56;4964126;28;20065;-65
2022/06/23 04:43:06;;;;;;;11.02;6.07;;;;;;;18.30;60.88;101139.75;4993058;28;20100;-65
2022/06/23 04:45:59;;;;;;;8.70;5.72;;;;;;;18.18;60.92;101141.47;5012233;28;20565;-65
2022/06/23 04:48:34;;;;;;;10.00;5.78;;;;;;;18.21;61.04;101133.69;5008754;28;20087;-65
2022/06/23 04:51:06;;;;;;;10.10;5.97;;;;;;;18.17;60.94;101136.28;5007060;28;20038;-65
2022/06/23 04:53:35;;;;;;;12.20;5.95;;;;;;;18.13;60.73;101135.38;5005324;28;20017;-66
2022/06/23 04:56:29;;;;;;;11.38;5.72;;;;;;;18.22;60.43;101142.34;5011967;28;20038;-65
2022/06/23 04:59:13;;;;;;;8.93;5.63;;;;;;;18.28;60.69;101155.38;5003340;28;20512;-66
2022/06/23 05:01:41;;;;;;;12.70;5.90;;;;;;;18.35;60.26;101156.25;5012638;28;20064;-65
2022/06/23 05:04:17;;;;;;;8.63;5.75;;;;;;;18.42;60.01;101152.78;4992046;28;20038;-65
2022/06/23 05:06:46;;;;;;;12.68;5.60;;;;;;;18.47;59.87;101151.03;5011385;28;20061;-66
2022/06/23 05:09:26;;;;;;;8.82;5.68;;;;;;;18.55;60.07;101140.63;5009228;28;20077;-65
2022/06/23 05:11:56;;;;;;;8.88;5.78;;;;;;;18.59;59.61;101143.22;5009137;28;20072;-66
2022/06/23 05:14:25;;;;;;;9.95;5.50;;;;;;;18.62;59.14;101145.81;5014769;28;20083;-65
2022/06/23 05:16:55;;;;;;;9.30;5.55;;;;;;;18.65;59.32;101145.84;5011542;28;20029;-66
2022/06/23 05:19:28;;;;;;;8.57;6.00;;;;;;;18.73;58.92;101146.72;5011902;28;20022;-65
2022/06/23 05:22:07;;;;;;;11.95;6.60;;;;;;;18.71;58.46;101145.88;5010867;28;20030;-66
2022/06/23 05:24:41;;;;;;;12.02;6.63;;;;;;;18.78;58.91;101143.25;5012295;28;20033;-65
2022/06/23 05:27:16;;;;;;;11.60;6.05;;;;;;;18.82;58.29;101148.47;5009371;28;20113;-66
2022/06/23 05:29:55;;;;;;;13.25;6.32;;;;;;;18.87;58.49;101156.25;5010431;28;20018;-66
2022/06/23 05:32:30;;;;;;;13.40;7.07;;;;;;;18.96;58.33;101153.66;5010366;28;20107;-66
2022/06/23 05:35:16;;;;;;;9.52;6.43;;;;;;;19.02;58.51;101153.63;5014056;28;20095;-66
2022/06/23 05:37:55;;;;;;;10.85;6.82;;;;;;;19.06;57.96;101147.56;5008320;28;20088;-66
2022/06/23 05:40:33;;;;;;;13.20;7.25;;;;;;;19.09;56.98;101144.06;5005766;28;20110;-66
2022/06/23 05:43:03;;;;;;;8.45;6.22;;;;;;;19.18;57.24;101134.50;5012442;28;20037;-66
2022/06/23 05:45:36;;;;;;;18.75;6.85;;;;;;;19.21;57.79;101136.19;5010694;28;20030;-66
2022/06/23 05:48:10;;;;;;;12.20;6.90;;;;;;;19.30;57.02;101130.97;5012883;28;20057;-66
2022/06/23 05:50:57;;;;;;;14.48;7.10;;;;;;;19.39;57.24;101128.31;5011039;28;20034;-66
2022/06/23 05:53:30;;;;;;;17.13;7.13;;;;;;;19.45;57.26;101128.28;5009823;28;20025;-66
2022/06/23 05:55:58;;;;;;;20.17;7.75;;;;;;;19.50;56.75;101131.75;5012199;28;20035;-66
2022/06/23 05:58:29;;;;;;;12.20;6.70;;;;;;;19.60;56.59;101142.19;5008495;28;20076;-66
2022/06/23 06:01:08;;;;;;;11.93;6.88;;;;;;;19.65;56.50;101146.47;5012070;28;20464;-67
2022/06/23 06:03:49;;;;;;;12.13;6.85;;;;;;;19.72;56.79;101143.00;5011600;28;20026;-66
2022/06/23 06:06:15;;;;;;;9.88;6.68;;;;;;;19.83;56.54;101140.31;5007645;28;20298;-66
2022/06/23 06:11:34;;;;;;;14.82;6.65;;;;;;;19.93;56.00;101139.38;5010793;28;20139;-66
2022/06/23 06:14:01;;;;;;;13.10;5.97;;;;;;;20.11;55.85;101142.75;5010374;28;20041;-66
2022/06/23 06:16:28;;;;;;;9.98;5.95;;;;;;;20.12;56.04;101141.88;5007373;28;20405;-66
2022/06/23 06:18:54;;;;;;;11.95;5.90;;;;;;;20.20;55.35;101140.94;5007976;28;20476;-66
2022/06/23 06:21:22;;;;;;;9.07;5.10;;;;;;;20.34;55.83;101138.25;4989850;28;20057;-67
2022/06/23 06:24:06;;;;;;;8.98;5.68;;;;;;;20.38;55.06;101134.72;5009596;28;20082;-66
2022/06/23 06:26:36;;;;;;;9.27;5.20;;;;;;;20.52;55.28;101137.25;5004141;28;20508;-66
2022/06/23 06:29:14;;;;;;;15.93;6.00;;;;;;;20.50;54.66;101133.78;5014909;28;20022;-67
2022/06/23 06:31:45;;;;;;;9.07;5.57;;;;;;;20.59;54.84;101141.53;5000837;28;20111;-67
2022/06/23 06:34:17;;;;;;;13.40;6.38;;;;;;;20.60;54.08;101132.81;5007467;28;20022;-66
2022/06/23 06:36:46;;;;;;;9.65;5.35;;;;;;;20.70;54.17;101134.47;5013467;28;20112;-67
2022/06/23 06:39:21;;;;;;;9.90;5.63;;;;;;;20.71;54.41;101128.38;5008238;28;20018;-67
2022/06/23 06:42:11;;;;;;;9.88;5.35;;;;;;;20.93;54.78;101133.38;5015331;28;20037;-67
2022/06/23 06:44:44;;;;;;;10.50;5.68;;;;;;;20.96;54.44;101136.84;5010134;28;20509;-66
2022/06/23 06:47:18;;;;;;;10.48;5.45;;;;;;;21.16;54.47;101139.22;4992003;28;20026;-66
2022/06/23 06:49:44;;;;;;;8.50;5.60;;;;;;;21.14;54.60;101151.47;5008557;28;20038;-67
2022/06/23 06:52:11;;;;;;;10.68;5.30;;;;;;;21.26;54.78;101143.47;4991841;28;20456;-67
2022/06/23 06:54:44;;;;;;;11.95;5.55;;;;;;;21.38;54.41;101143.38;5013802;28;20022;-67
2022/06/23 06:57:23;;;;;;;8.63;5.40;;;;;;;21.49;53.54;101145.00;5009280;28;20052;-67
2022/06/23 07:00:07;;;;;;;10.52;5.82;;;;;;;21.51;54.44;101151.06;5012951;28;20038;-67
2022/06/23 07:02:47;;;;;;;9.45;5.50;;;;;;;21.62;54.27;101142.19;5003088;28;20085;-67
2022/06/23 07:05:24;;;;;;;10.68;6.68;;;;;;;21.70;54.51;101139.47;5009628;28;20022;-67
2022/06/23 07:08:08;;;;;;;14.43;6.00;;;;;;;21.89;54.52;101135.69;5010582;28;20128;-67
2022/06/23 07:10:48;;;;;;;9.70;5.50;;;;;;;22.05;54.00;101135.50;5008227;28;20030;-67
2022/06/23 07:13:35;;;;;;;8.10;5.78;;;;;;;22.19;54.24;101128.31;5008427;28;20037;-67
2022/06/23 07:16:06;;;;;;;12.95;6.03;;;;;;;22.27;54.01;101139.56;5006900;28;20031;-67
2022/06/23 07:19:05;;;;;;;14.10;6.53;;;;;;;22.36;53.60;101143.75;5009561;28;20041;-67
2022/06/23 07:21:58;;;;;;;9.45;6.30;;;;;;;22.46;53.93;101150.59;5009803;28;20032;-67
2022/06/23 07:24:26;;;;;;;10.70;6.10;;;;;;;22.61;53.65;101150.31;5010740;28;20104;-67
2022/06/23 07:26:59;;;;;;;9.40;5.75;;;;;;;22.70;53.53;101149.31;5011763;28;20030;-67
2022/06/23 07:29:37;;;;;;;9.07;6.30;;;;;;;22.85;53.81;101151.66;5008270;28;20026;-67
2022/06/23 07:32:12;;;;;;;9.65;6.90;;;;;;;22.90;54.06;101149.84;5010248;28;20061;-67
2022/06/23 07:34:42;;;;;;;12.75;7.10;;;;;;;23.01;54.18;101153.16;5015369;28;20073;-67
2022/06/23 07:37:22;;;;;;;14.90;7.68;;;;;;;23.00;53.22;101156.66;5012760;28;20028;-67
2022/06/23 07:39:56;;;;;;;13.32;7.32;;;;;;;23.14;52.54;101137.16;5009832;28;20022;-67
2022/06/23 07:42:42;;;;;;;13.73;7.43;;;;;;;23.21;53.06;101142.25;5014726;28;20109;-67
2022/06/23 07:45:22;;;;;;;10.82;8.00;;;;;;;23.23;53.03;101127.34;5017946;28;20026;-67
2022/06/23 07:47:48;;;;;;;16.55;7.57;;;;;;;23.40;53.13;101132.25;5012778;28;20042;-67
2022/06/23 07:50:13;;;;;;;14.18;8.27;;;;;;;23.35;52.66;101141.13;5012387;28;20044;-67
2022/06/23 07:52:41;;;;;;;13.25;8.48;;;;;;;23.46;53.02;101139.13;5017350;28;20754;-67
2022/06/23 07:55:15;;;;;;;13.57;7.40;;;;;;;23.60;53.69;101131.84;5013398;28;20041;-67
2022/06/23 07:57:40;;;;;;;14.60;6.90;;;;;;;23.75;55.12;101136.78;4998566;28;20033;-67
2022/06/23 08:00:07;;;;;;;14.10;7.97;;;;;;;23.77;54.54;101131.50;5014009;28;20030;-67
2022/06/23 08:03:00;;;;;;;13.98;7.40;;;;;;;23.89;54.08;101125.97;5016974;28;20038;-67
2022/06/23 08:05:58;;;;;;;13.23;7.78;;;;;;;23.94;54.14;101129.34;5017270;28;20120;-67
2022/06/23 08:08:28;;;;;;;17.27;7.40;;;;;;;24.10;54.88;101135.13;4998568;28;20370;-67
2022/06/23 08:13:45;;;;;;;11.85;7.95;;;;;;;24.16;53.84;101134.13;5021095;28;20121;-67
2022/06/23 08:19:09;;;;;;;12.05;7.18;;;;;;;24.32;54.79;101123.19;5012924;28;20121;-67
2022/06/23 08:21:41;;;;;;;12.90;7.95;;;;;;;24.43;53.79;101114.22;5010660;28;20034;-67
2022/06/23 08:24:14;;;;;;;14.45;9.40;;;;;;;24.52;53.23;101124.50;5013255;28;20030;-67
2022/06/23 08:26:44;;;;;;;14.85;7.85;;;;;;;24.62;54.17;101123.34;5012363;28;20033;-67
2022/06/23 08:29:14;;;;;;;15.25;8.00;;;;;;;24.72;53.73;101118.72;5011434;28;20026;-67
2022/06/23 08:31:40;;;;;;;17.02;8.43;;;;;;;24.70;53.76;101113.50;5009884;28;20026;-67
2022/06/23 08:34:07;;;;;;;16.75;8.10;;;;;;;24.77;54.24;101116.84;5011581;28;20034;-67
2022/06/23 08:36:44;;;;;;;12.00;8.23;;;;;;;24.87;53.95;101119.19;5011794;28;20053;-67
2022/06/23 08:39:22;;;;;;;16.30;7.88;;;;;;;25.02;53.83;101119.66;5011953;28;20098;-67
2022/06/23 08:42:04;;;;;;;13.70;8.55;;;;;;;25.08;53.22;101125.63;5012477;28;20040;-67
2022/06/23 08:44:47;;;;;;;13.48;8.35;;;;;;;25.14;53.28;101117.56;5011893;28;20014;-67
2022/06/23 08:47:28;;;;;;;14.38;7.90;;;;;;;25.23;52.79;101119.06;5011776;28;20037;-67
2022/06/23 08:50:02;;;;;;;11.73;7.40;;;;;;;25.35;53.21;101117.84;5010405;28;20124;-67
2022/06/23 08:52:59;;;;;;;17.15;8.75;;;;;;;25.39;52.60;101120.34;5011084;28;20030;-67
2022/06/23 08:55:36;;;;;;;15.55;7.43;;;;;;;25.54;53.26;101128.69;5009769;28;20053;-67
2022/06/23 08:58:05;;;;;;;13.23;7.53;;;;;;;25.55;52.51;101122.56;5019272;28;20049;-67
2022/06/23 09:00:33;;;;;;;13.13;7.07;;;;;;;25.63;53.30;101123.19;5016198;28;20032;-67
2022/06/23 09:03:36;;;;;;;15.85;7.00;;;;;;;25.67;52.95;101112.50;5011648;28;20078;-67
2022/06/23 09:06:22;;;;;;;12.68;6.18;;;;;;;25.78;52.47;101114.81;5011144;28;20030;-67
2022/06/23 09:09:13;;;;;;;11.45;6.65;;;;;;;25.90;51.64;101118.84;5010159;28;20042;-67
2022/06/23 09:12:00;;;;;;;13.70;6.70;;;;;;;26.03;51.65;101108.78;5011642;28;20038;-67
2022/06/23 09:14:37;;;;;;;9.82;5.53;;;;;;;26.12;51.94;101108.50;5009433;28;20033;-67
2022/06/23 09:17:31;;;;;;;11.52;5.97;;;;;;;26.11;51.51;101097.09;5008402;28;20543;-67
2022/06/23 09:20:19;;;;;;;11.55;5.97;;;;;;;26.24;51.46;101096.69;5001360;28;20037;-67
2022/06/23 09:23:11;;;;;;;12.85;6.03;;;;;;;26.24;51.92;101091.41;5010769;28;20038;-67
2022/06/23 09:25:52;;;;;;;11.50;5.03;;;;;;;26.37;52.11;101096.22;5008821;28;20036;-67
2022/06/23 09:28:33;;;;;;;11.15;6.30;;;;;;;26.42;52.35;101093.47;5006212;28;20030;-68
2022/06/23 09:31:07;;;;;;;14.60;7.68;;;;;;;26.45;50.48;101088.97;5017105;28;20054;-67
2022/06/23 09:33:46;;;;;;;10.75;5.95;;;;;;;26.55;51.94;101093.91;5013620;28;20037;-67
2022/06/23 09:36:38;;;;;;;12.48;5.28;;;;;;;26.61;52.32;101094.56;5013892;28;20473;-67
2022/06/23 09:39:34;;;;;;;11.75;5.72;;;;;;;26.72;51.35;101091.53;5010762;28;20033;-67
2022/06/23 09:42:11;;;;;;;10.82;4.10;;;;;;;26.83;51.55;101080.63;5017042;28;20088;-67
2022/06/23 09:45:04;;;;;;;8.47;3.10;;;;;;;26.98;51.47;101091.47;5012303;28;20389;-67
2022/06/23 09:48:02;;;;;;;10.43;4.18;;;;;;;27.09;50.58;101083.19;5009142;28;20124;-67
2022/06/23 09:50:30;;;;;;;9.40;3.00;;;;;;;27.19;50.43;101070.53;5014446;28;20033;-67
2022/06/23 09:53:45;;;;;;;12.70;3.20;;;;;;;27.24;50.87;101079.09;5010400;28;20042;-68
2022/06/23 09:56:34;;;;;;;7.63;2.85;;;;;;;27.39;50.03;101075.03;5010861;28;20054;-67
2022/06/23 09:59:36;;;;;;;6.75;2.60;;;;;;;27.48;51.07;101072.91;5014063;28;20109;-67
2022/06/23 10:02:24;;;;;;;8.07;2.80;;;;;;;27.56;49.46;101075.25;5009334;28;20053;-68
2022/06/23 10:05:11;;;;;;;7.97;3.13;;;;;;;27.67;50.75;101075.69;5008458;28;20064;-67
2022/06/23 10:07:58;;;;;;;9.73;2.88;;;;;;;27.76;50.57;101082.41;5010334;28;20157;-67
2022/06/23 10:10:53;;;;;;;9.63;3.30;;;;;;;27.92;49.63;101067.66;5010274;28;20096;-68
2022/06/23 10:13:40;;;;;;;9.88;3.03;;;;;;;28.00;49.50;101072.63;5008079;28;20121;-68
2022/06/23 10:16:14;;;;;;;9.95;3.60;;;;;;;28.14;48.96;101072.91;5010024;28;20036;-68
2022/06/23 10:18:57;;;;;;;9.18;3.10;;;;;;;28.23;49.53;101067.25;5014810;28;20034;-67
2022/06/23 10:21:36;;;;;;;7.97;3.10;;;;;;;28.27;48.87;101062.66;5012958;28;20033;-67
2022/06/23 10:24:19;;;;;;;8.30;2.67;;;;;;;28.41;49.44;101072.72;5009235;28;20447;-67
2022/06/23 10:26:45;;;;;;;10.27;2.83;;;;;;;28.43;48.53;101061.13;5005287;28;20037;-67
2022/06/23 10:29:48;;;;;;;8.05;2.80;;;;;;;28.41;48.97;101064.78;5014180;28;20021;-68
2022/06/23 10:32:44;;;;;;;10.95;3.25;;;;;;;28.50;48.78;101059.06;5010256;28;20112;-67
2022/06/23 10:35:13;;;;;;;8.82;3.28;;;;;;;28.66;47.82;101056.63;5007241;28;20117;-67
2022/06/23 10:37:50;;;;;;;12.32;3.28;;;;;;;28.61;48.98;101058.63;4997539;28;22229;-67
2022/06/23 10:40:45;;;;;;;9.73;3.05;;;;;;;28.53;48.90;101056.31;5011330;28;20050;-67
2022/06/23 10:43:11;;;;;;;11.20;3.13;;;;;;;28.61;49.05;101043.59;5013155;28;20036;-67
2022/06/23 10:46:04;;;;;;;12.98;3.65;;;;;;;28.64;48.24;101054.06;5009114;28;20030;-67
2022/06/23 10:48:54;;;;;;;9.82;3.33;;;;;;;28.51;48.38;101050.22;5008646;28;20037;-67
2022/06/23 10:51:43;;;;;;;12.15;3.70;;;;;;;28.45;50.25;101046.03;5010927;28;20112;-67
2022/06/23 10:54:21;;;;;;;9.38;3.30;;;;;;;28.61;50.42;101040.94;5009965;28;20081;-67
2022/06/23 10:57:15;;;;;;;8.38;3.13;;;;;;;28.77;49.81;101039.34;4994383;28;20499;-67
2022/06/23 10:59:55;;;;;;;8.73;3.70;;;;;;;28.80;49.20;101046.28;5008943;28;20030;-67
2022/06/23 11:03:08;;;;;;;11.85;3.42;;;;;;;28.81;49.74;101043.56;4988075;28;20056;-67
2022/06/23 11:05:45;;;;;;;10.30;3.40;;;;;;;28.75;49.52;101035.91;4933381;28;20610;-67
2022/06/23 11:08:37;;;;;;;10.98;3.95;;;;;;;28.81;49.57;101038.25;4948575;28;20062;-67
2022/06/23 11:11:03;;;;;;;7.55;3.40;;;;;;;28.82;50.76;101032.06;4998412;28;20057;-67
2022/06/23 11:13:37;;;;;;;10.20;3.55;;;;;;;28.93;50.86;101034.22;5009159;28;20030;-67
2022/06/23 11:16:34;;;;;;;10.82;3.75;;;;;;;28.95;50.11;101032.41;5011087;28;20062;-67
2022/06/23 11:19:33;;;;;;;8.52;3.63;;;;;;;28.93;49.39;101028.94;4990238;28;20034;-67
2022/06/23 11:22:14;;;;;;;10.82;3.65;;;;;;;28.97;48.77;101024.38;5017102;28;20022;-67
2022/06/23 11:24:54;;;;;;;9.77;4.00;;;;;;;28.99;49.27;101031.31;5014009;28;20025;-67
2022/06/23 11:27:53;;;;;;;13.30;4.20;;;;;;;29.00;48.62;101026.88;5008775;28;20112;-67
2022/06/23 11:30:25;;;;;;;8.68;3.92;;;;;;;29.01;48.80;101023.31;5009576;28;20026;-67
2022/06/23 11:33:05;;;;;;;14.52;4.20;;;;;;;28.96;48.17;101036.75;5014101;28;20038;-67
2022/06/23 11:36:00;;;;;;;15.65;4.80;;;;;;;28.92;48.32;101034.28;5017537;28;20033;-67
2022/06/23 11:39:10;;;;;;;10.60;4.30;;;;;;;28.89;49.20;101021.19;4997388;28;20045;-67
2022/06/23 11:41:54;;;;;;;9.48;4.15;;;;;;;28.80;48.44;101015.38;4986972;28;20032;-67
2022/06/23 11:44:25;;;;;;;12.45;3.80;;;;;;;28.72;49.01;101017.53;5008736;28;20408;-67
2022/06/23 11:47:09;;;;;;;8.65;3.55;;;;;;;28.81;48.33;101018.88;5012215;28;20033;-66
2022/06/23 11:49:46;;;;;;;11.43;4.13;;;;;;;28.90;48.97;101023.78;5012268;28;20108;-66
2022/06/23 11:52:30;;;;;;;9.18;3.63;;;;;;;28.80;47.76;101020.66;5016437;28;20037;-67
2022/06/23 11:55:07;;;;;;;8.27;3.47;;;;;;;28.68;46.36;101013.28;5016555;28;20380;-67
2022/06/23 11:57:50;;;;;;;10.05;3.50;;;;;;;28.58;46.79;101007.56;5016079;28;20049;-67
2022/06/23 12:00:19;;;;;;;9.52;3.42;;;;;;;28.67;48.50;101008.06;5013989;28;20563;-67
2022/06/23 12:03:01;;;;;;;14.20;3.97;;;;;;;28.81;48.82;101005.66;5013487;28;20037;-67
2022/06/23 12:05:32;;;;;;;12.18;3.70;;;;;;;28.92;49.66;100998.13;5018497;28;20427;-66
2022/06/23 12:08:12;;;;;;;7.10;2.95;;;;;;;28.98;48.54;100997.81;5010605;28;20050;-67
2022/06/23 12:10:39;;;;;;;8.65;3.33;;;;;;;28.98;48.08;101002.28;5013199;28;20034;-67
2022/06/23 12:13:05;;;;;;;10.18;3.50;;;;;;;28.89;48.92;101007.97;5011852;28;20054;-67
2022/06/23 12:15:40;;;;;;;11.50;3.53;;;;;;;28.95;48.88;100998.00;5010440;28;20033;-66
2022/06/23 12:18:11;;;;;;;12.23;3.70;;;;;;;29.00;46.96;101003.94;5010833;28;20057;-68
2022/06/23 12:21:16;;;;;;;9.77;3.33;;;;;;;29.05;47.37;101001.03;5012482;28;20026;-66
2022/06/23 12:23:50;;;;;;;9.68;3.50;;;;;;;29.07;47.02;101000.06;5000540;28;20116;-67
2022/06/23 12:26:32;;;;;;;11.07;3.17;;;;;;;29.11;46.85;101000.75;5013830;28;20025;-68